Map

Track Data

SID SEASON NUMBER BASIN SUBBASIN NAME ISO_TIME NATURE LAT LON WMO_WIND WMO_PRES WMO_AGENCY TRACK_TYPE DIST2LAND LANDFALL IFLAG USA_AGENCY USA_ATCF_ID USA_LAT USA_LON USA_RECORD USA_STATUS USA_WIND USA_PRES USA_SSHS USA_R34_NE USA_R34_SE USA_R34_SW USA_R34_NW USA_R50_NE USA_R50_SE USA_R50_SW USA_R50_NW USA_R64_NE USA_R64_SE USA_R64_SW USA_R64_NW USA_POCI USA_ROCI USA_RMW USA_EYE TOKYO_LAT TOKYO_LON TOKYO_GRADE TOKYO_WIND TOKYO_PRES TOKYO_R50_DIR TOKYO_R50_LONG TOKYO_R50_SHORT TOKYO_R30_DIR TOKYO_R30_LONG TOKYO_R30_SHORT TOKYO_LAND CMA_LAT CMA_LON CMA_CAT CMA_WIND CMA_PRES HKO_LAT HKO_LON HKO_CAT HKO_WIND HKO_PRES NEWDELHI_LAT NEWDELHI_LON NEWDELHI_GRADE NEWDELHI_WIND NEWDELHI_PRES NEWDELHI_CI NEWDELHI_DP NEWDELHI_POCI REUNION_LAT REUNION_LON REUNION_TYPE REUNION_WIND REUNION_PRES REUNION_TNUM REUNION_CI REUNION_RMW REUNION_R34_NE REUNION_R34_SE REUNION_R34_SW REUNION_R34_NW REUNION_R50_NE REUNION_R50_SE REUNION_R50_SW REUNION_R50_NW REUNION_R64_NE REUNION_R64_SE REUNION_R64_SW REUNION_R64_NW BOM_LAT BOM_LON BOM_TYPE BOM_WIND BOM_PRES BOM_TNUM BOM_CI BOM_RMW BOM_R34_NE BOM_R34_SE BOM_R34_SW BOM_R34_NW BOM_R50_NE BOM_R50_SE BOM_R50_SW BOM_R50_NW BOM_R64_NE BOM_R64_SE BOM_R64_SW BOM_R64_NW BOM_ROCI BOM_POCI BOM_EYE BOM_POS_METHOD BOM_PRES_METHOD NADI_LAT NADI_LON NADI_CAT NADI_WIND NADI_PRES WELLINGTON_LAT WELLINGTON_LON WELLINGTON_WIND WELLINGTON_PRES DS824_LAT DS824_LON DS824_STAGE DS824_WIND DS824_PRES TD9636_LAT TD9636_LON TD9636_STAGE TD9636_WIND TD9636_PRES TD9635_LAT TD9635_LON TD9635_WIND TD9635_PRES TD9635_ROCI NEUMANN_LAT NEUMANN_LON NEUMANN_CLASS NEUMANN_WIND NEUMANN_PRES MLC_LAT MLC_LON MLC_CLASS MLC_WIND MLC_PRES USA_GUST BOM_GUST BOM_GUST_PER REUNION_GUST REUNION_GUST_PER USA_SEAHGT USA_SEARAD_NE USA_SEARAD_SE USA_SEARAD_SW USA_SEARAD_NW STORM_SPEED STORM_DIR
1920271N14116 1920 45 WP MM NOT_NAMED 1920-09-27 10:00:00 NR 14.2000 116.300 main 409 409 __________O___ -1 14.2000 116.300 7 5 274
1920271N14116 1920 45 WP MM NOT_NAMED 1920-09-27 12:00:00 NR 14.2113 116.117 main 430 430 __________P___ -1 14.2113 116.117 7 5 274
1920271N14116 1920 45 WP MM NOT_NAMED 1920-09-27 15:00:00 NR 14.2302 115.837 main 460 460 __________P___ -1 14.2302 115.837 7 6 274
1920271N14116 1920 45 WP MM NOT_NAMED 1920-09-27 18:00:00 NR 14.2543 115.539 main 488 488 __________P___ -1 14.2543 115.539 7 6 275
1920271N14116 1920 45 WP MM NOT_NAMED 1920-09-27 21:00:00 NR 14.2868 115.216 main 519 519 __________P___ -1 14.2868 115.216 7 6 276
1920271N14116 1920 45 WP MM NOT_NAMED 1920-09-27 22:00:00 NR 14.3000 115.100 main 529 529 __________O___ -1 14.3000 115.100 2 7 277
1920271N14116 1920 45 WP MM NOT_NAMED 1920-09-28 00:00:00 NR 14.3308 114.857 main 549 559 __________P___ -1 14.3308 114.857 2 7 278
1920271N14116 1920 45 WP MM NOT_NAMED 1920-09-28 03:00:00 NR 14.3894 114.472 main 563 522 __________P___ -1 14.3894 114.472 2 8 280
1920271N14116 1920 45 WP MM NOT_NAMED 1920-09-28 06:00:00 NR 14.4656 114.085 main 522 480 __________P___ -1 14.4656 114.085 2 8 283
1920271N14116 1920 45 WP MM NOT_NAMED 1920-09-28 09:00:00 NR 14.5625 113.715 main 480 470 __________P___ -1 14.5625 113.715 2 7 286
1920271N14116 1920 45 WP MM NOT_NAMED 1920-09-28 10:00:00 NR 14.6000 113.600 main 470 450 __________O___ -1 14.6000 113.600 2 7 290
1920271N14116 1920 45 WP MM NOT_NAMED 1920-09-28 12:00:00 NR 14.6854 113.373 main 450 421 __________P___ -1 14.6854 113.373 2 7 294
1920271N14116 1920 45 WP MM NOT_NAMED 1920-09-28 15:00:00 NR 14.8326 113.057 main 421 396 __________P___ -1 14.8326 113.057 2 6 298
1920271N14116 1920 45 WP MM NOT_NAMED 1920-09-28 18:00:00 NR 14.9916 112.782 main 396 378 __________P___ -1 14.9916 112.782 2 6 303
1920271N14116 1920 45 WP MM NOT_NAMED 1920-09-28 21:00:00 NR 15.1497 112.560 main 378 369 __________P___ -1 15.1497 112.560 2 5 307
1920271N14116 1920 45 WP MM NOT_NAMED 1920-09-28 22:00:00 NR 15.2000 112.500 main 369 359 __________O___ -1 15.2000 112.500 2 4 311
1920271N14116 1920 45 WP MM NOT_NAMED 1920-09-29 00:00:00 NR 15.2863 112.396 main 360 350 __________P___ -1 15.2863 112.396 2 4 316
1920271N14116 1920 45 WP MM NOT_NAMED 1920-09-29 03:00:00 NR 15.4094 112.291 main 352 344 __________P___ -1 15.4094 112.291 2 3 327
1920271N14116 1920 45 WP MM NOT_NAMED 1920-09-29 06:00:00 NR 15.5307 112.233 main 344 344 __________P___ -1 15.5307 112.233 2 3 342
1920271N14116 1920 45 WP MM NOT_NAMED 1920-09-29 09:00:00 NR 15.6562 112.205 main 351 351 __________P___ -1 15.6562 112.205 2 3 349
1920271N14116 1920 45 WP MM NOT_NAMED 1920-09-29 10:00:00 NR 15.7000 112.200 main 351 344 __________O___ -1 15.7000 112.200 2 3 333
1920271N14116 1920 45 WP MM NOT_NAMED 1920-09-29 12:00:00 NR 15.7784 112.144 main 344 344 __________P___ -1 15.7784 112.144 2 3 330
1920271N14116 1920 45 WP MM NOT_NAMED 1920-09-29 15:00:00 NR 15.9020 112.078 main 348 348 __________P___ -1 15.9020 112.078 2 3 344
1920271N14116 1920 45 WP MM NOT_NAMED 1920-09-29 18:00:00 NR 16.0467 112.066 main 349 332 __________P___ -1 16.0467 112.066 2 3 12
1920271N14116 1920 45 WP MM NOT_NAMED 1920-09-29 21:00:00 NR 16.2285 112.146 main 332 329 __________P___ -1 16.2285 112.146 2 4 27
1920271N14116 1920 45 WP MM NOT_NAMED 1920-09-29 22:00:00 NR 16.3000 112.200 main 329 320 __________O___ -1 16.3000 112.200 2 6 44
1920271N14116 1920 45 WP MM NOT_NAMED 1920-09-30 00:00:00 NR 16.4609 112.380 main 324 323 __________P___ -1 16.4609 112.380 2 8 50
1920271N14116 1920 45 WP MM NOT_NAMED 1920-09-30 03:00:00 NR 16.7399 112.744 main 330 330 __________P___ -1 16.7399 112.744 2 10 52
1920271N14116 1920 45 WP MM NOT_NAMED 1920-09-30 06:00:00 NR 17.0525 113.165 main 343 343 __________P___ -1 17.0525 113.165 2 10 51
1920271N14116 1920 45 WP MM NOT_NAMED 1920-09-30 09:00:00 NR 17.3862 113.576 main 363 363 __________P___ -1 17.3862 113.576 2 10 49
1920271N14116 1920 45 WP MM NOT_NAMED 1920-09-30 10:00:00 NR 17.5000 113.700 main 367 367 __________O___ -1 17.5000 113.700 2 10 44
1920271N14116 1920 45 WP MM NOT_NAMED 1920-09-30 12:00:00 NR 17.7480 113.936 main 372 368 __________P___ -1 17.7480 113.936 2 10 40
1920271N14116 1920 45 WP MM NOT_NAMED 1920-09-30 15:00:00 NR 18.1333 114.254 main 385 376 __________P___ -1 18.1333 114.254 2 9 35
1920271N14116 1920 45 WP MM NOT_NAMED 1920-09-30 18:00:00 NR 18.5011 114.490 main 387 384 __________P___ -1 18.5011 114.490 2 8 26
1920271N14116 1920 45 WP MM NOT_NAMED 1920-09-30 21:00:00 NR 18.8143 114.599 main 384 374 __________P___ -1 18.8143 114.599 2 6 15
1920271N14116 1920 45 WP MM NOT_NAMED 1920-09-30 22:00:00 NR 18.9000 114.600 main 374 364 __________O___ -1 18.9000 114.600 2 4 349
1920271N14116 1920 45 WP MM NOT_NAMED 1920-10-01 00:00:00 NR 19.0234 114.560 main 364 345 __________P___ -1 19.0234 114.560 2 4 319
1920271N14116 1920 45 WP MM NOT_NAMED 1920-10-01 03:00:00 NR 19.1456 114.374 main 345 322 __________P___ -1 19.1456 114.374 2 5 293
1920271N14116 1920 45 WP MM NOT_NAMED 1920-10-01 06:00:00 NR 19.2203 114.062 main 322 285 __________P___ -1 19.2203 114.062 2 7 281
1920271N14116 1920 45 WP MM NOT_NAMED 1920-10-01 09:00:00 NR 19.2787 113.653 main 285 264 __________P___ -1 19.2787 113.653 2 8 279
1920271N14116 1920 45 WP MM NOT_NAMED 1920-10-01 10:00:00 NR 19.3000 113.500 main 264 231 __________O___ -1 19.3000 113.500 2 9 279
1920271N14116 1920 45 WP MM NOT_NAMED 1920-10-01 12:00:00 NR 19.3504 113.174 main 231 169 __________P___ -1 19.3504 113.174 2 10 280
1920271N14116 1920 45 WP MM NOT_NAMED 1920-10-01 15:00:00 NR 19.4427 112.646 main 169 115 __________P___ -1 19.4427 112.646 2 11 281
1920271N14116 1920 45 WP MM NOT_NAMED 1920-10-01 18:00:00 NR 19.5488 112.082 main 115 53 __________P___ -1 19.5488 112.082 2 11 281
1920271N14116 1920 45 WP MM NOT_NAMED 1920-10-01 21:00:00 NR 19.6619 111.497 main 53 33 __________P___ -1 19.6619 111.497 2 11 282
1920271N14116 1920 45 WP MM NOT_NAMED 1920-10-01 22:00:00 NR 19.7000 111.300 main 33 __________O___ -1 19.7000 111.300 2 11 282

Digital Typhoon Data and Search

About IBTrACS Database

This database is a web-friendly format of International Best Track Archive for Climate Stewardship (IBTrACS), a global best track data archive curated by NOAA dating back to 1842.

Updated: 2021-10-19